Time;durP1;ratioP1;P1;durP2;ratioP2;P2;SDS_P1;SDS_P2;PMS_P1;PMS_P2;Temp;Humidity;BMP_temperature;BMP_pressure;BME280_temperature;BME280_humidity;BME280_pressure;Samples;Min_cycle;Max_cycle;Signal;HPM_P1;HPM_P2
2024/03/29 00:01:16;;;;;;;15.70;4.80;;;;;;;9.19;59.66;100308.94;107529;1254;108549;-69
2024/03/29 00:03:55;;;;;;;19.70;4.80;;;;;;;9.13;59.79;100312.73;107585;1252;108204;-69
2024/03/29 00:06:23;;;;;;;15.40;4.10;;;;;;;9.06;59.92;100309.36;107473;1251;99269;-69
2024/03/29 00:08:51;;;;;;;14.80;4.70;;;;;;;9.01;59.95;100315.00;107490;1251;99268;-70
2024/03/29 00:11:19;;;;;;;16.90;4.60;;;;;;;9.01;59.83;100310.25;107645;1254;113085;-70
2024/03/29 00:13:47;;;;;;;12.80;4.80;;;;;;;8.99;59.66;100311.12;107622;1253;107764;-70
2024/03/29 00:16:15;;;;;;;11.90;4.50;;;;;;;8.99;59.54;100308.25;107510;1251;107126;-69
2024/03/29 00:18:43;;;;;;;13.90;4.20;;;;;;;8.99;59.88;100313.24;107529;1251;99174;-68
2024/03/29 00:21:11;;;;;;;10.20;4.20;;;;;;;8.99;59.50;100315.59;107554;1251;99767;-67
2024/03/29 00:23:40;;;;;;;12.90;4.80;;;;;;;8.98;59.38;100317.24;107588;1250;112721;-67
2024/03/29 00:26:08;;;;;;;14.70;4.10;;;;;;;8.98;59.27;100322.86;107573;1251;107706;-66
2024/03/29 00:28:37;;;;;;;13.90;4.20;;;;;;;8.96;59.34;100320.30;107505;1253;107205;-67
2024/03/29 00:31:05;;;;;;;7.80;3.60;;;;;;;8.94;59.37;100319.77;107641;1253;99172;-67
2024/03/29 00:33:34;;;;;;;11.00;4.10;;;;;;;8.89;59.25;100312.54;107609;1254;99276;-69
2024/03/29 00:36:02;;;;;;;14.60;4.20;;;;;;;8.85;59.56;100313.79;107590;1252;112446;-68
2024/03/29 00:38:31;;;;;;;17.50;4.90;;;;;;;8.81;59.54;100313.77;107575;1253;107121;-70
2024/03/29 00:40:59;;;;;;;16.80;4.40;;;;;;;8.80;59.92;100325.72;107568;1251;108629;-68
2024/03/29 00:43:27;;;;;;;11.70;3.40;;;;;;;8.79;59.86;100323.06;107483;1254;100335;-70
2024/03/29 00:45:55;;;;;;;9.00;3.70;;;;;;;8.79;59.99;100319.67;107534;1253;99301;-69
2024/03/29 00:48:24;;;;;;;9.40;3.50;;;;;;;8.80;60.00;100318.86;107583;1255;113034;-70
2024/03/29 00:50:52;;;;;;;11.40;4.30;;;;;;;8.78;59.76;100315.61;107565;1254;107954;-70
2024/03/29 00:53:20;;;;;;;11.40;3.30;;;;;;;8.78;60.18;100309.60;107582;1253;108238;-71
2024/03/29 00:55:48;;;;;;;15.50;3.90;;;;;;;8.74;60.04;100309.52;107528;1253;99166;-70
2024/03/29 00:58:16;;;;;;;9.60;3.50;;;;;;;8.72;59.91;100308.98;107479;1254;99205;-69
2024/03/29 01:00:44;;;;;;;12.40;3.50;;;;;;;8.71;60.06;100301.23;107561;1253;112332;-68
2024/03/29 01:03:12;;;;;;;11.20;3.10;;;;;;;8.69;60.06;100298.89;107535;1254;108432;-68
2024/03/29 01:05:40;;;;;;;8.80;3.40;;;;;;;8.67;60.28;100292.84;107627;1249;107953;-68
2024/03/29 01:08:09;;;;;;;14.80;3.30;;;;;;;8.64;60.35;100292.70;107504;1251;99259;-69
2024/03/29 01:10:37;;;;;;;8.40;3.70;;;;;;;8.62;60.41;100294.35;107531;1251;99067;-69
2024/03/29 01:13:06;;;;;;;7.00;3.00;;;;;;;8.60;60.36;100288.40;107506;1251;113146;-68
2024/03/29 01:15:34;;;;;;;11.90;3.10;;;;;;;8.62;60.59;100287.17;107518;1253;109207;-68
2024/03/29 01:18:03;;;;;;;19.00;4.40;;;;;;;8.63;60.97;100285.32;107523;1251;108066;-67
2024/03/29 01:20:31;;;;;;;23.00;5.00;;;;;;;8.63;61.18;100284.96;107548;1251;99195;-69
2024/03/29 01:23:00;;;;;;;11.30;4.10;;;;;;;8.61;61.32;100280.29;107587;1251;99195;-69
2024/03/29 01:25:29;;;;;;;10.00;4.10;;;;;;;8.62;61.46;100276.09;107621;1255;113407;-70
2024/03/29 01:27:57;;;;;;;11.20;4.70;;;;;;;8.66;61.71;100271.24;107607;1251;107836;-69
2024/03/29 01:30:26;;;;;;;20.30;6.70;;;;;;;8.69;61.70;100264.58;107553;1251;108235;-69
2024/03/29 01:32:54;;;;;;;20.40;6.90;;;;;;;8.73;61.59;100256.54;107570;1251;99060;-69
2024/03/29 01:35:22;;;;;;;19.90;7.30;;;;;;;8.76;61.76;100260.19;107527;1253;101970;-70
2024/03/29 01:37:50;;;;;;;18.10;6.70;;;;;;;8.80;61.89;100259.86;107597;1251;112963;-69
2024/03/29 01:40:19;;;;;;;13.40;6.00;;;;;;;8.83;62.03;100252.64;107546;1251;108501;-69
2024/03/29 01:42:47;;;;;;;23.00;5.60;;;;;;;8.85;62.02;100249.98;107552;1253;108541;-69
2024/03/29 01:45:15;;;;;;;13.50;4.60;;;;;;;8.87;62.01;100249.96;107560;1252;99192;-68
2024/03/29 01:47:44;;;;;;;12.90;4.50;;;;;;;8.89;62.14;100248.36;107617;1254;99842;-67
2024/03/29 01:50:12;;;;;;;13.20;4.40;;;;;;;8.92;62.08;100247.45;107541;1253;113271;-67
2024/03/29 01:52:40;;;;;;;18.10;4.80;;;;;;;8.97;62.13;100245.31;107556;1253;107521;-66
2024/03/29 01:55:09;;;;;;;12.90;4.30;;;;;;;8.99;62.25;100244.98;107528;1253;108348;-66
2024/03/29 01:57:37;;;;;;;8.60;4.30;;;;;;;9.01;62.13;100247.08;107543;1253;99188;-65
2024/03/29 02:00:07;;;;;;;12.90;4.40;;;;;;;9.03;62.11;100250.50;107566;1253;99087;-67
2024/03/29 02:02:36;;;;;;;13.60;4.50;;;;;;;9.04;62.02;100250.23;107525;1253;113003;-67
2024/03/29 02:05:05;;;;;;;10.50;3.00;;;;;;;9.05;62.15;100249.01;107514;1254;108850;-69
2024/03/29 02:07:35;;;;;;;12.50;4.20;;;;;;;9.08;62.21;100245.37;107525;1253;106345;-70
2024/03/29 02:10:06;;;;;;;9.70;4.90;;;;;;;9.10;62.35;100249.19;107576;1253;99182;-69
2024/03/29 02:12:34;;;;;;;11.40;3.50;;;;;;;9.10;62.65;100259.13;107558;1256;99061;-69
2024/03/29 02:15:03;;;;;;;7.50;3.80;;;;;;;9.10;62.49;100261.66;107526;1253;113622;-69
2024/03/29 02:17:34;;;;;;;13.20;3.30;;;;;;;9.11;62.64;100261.39;107564;1254;107475;-69
2024/03/29 02:20:03;;;;;;;12.40;3.00;;;;;;;9.10;62.64;100257.40;107569;1252;108271;-69
2024/03/29 02:22:33;;;;;;;14.10;3.20;;;;;;;9.09;62.54;100256.19;107539;1254;99099;-69
2024/03/29 02:25:01;;;;;;;7.70;3.30;;;;;;;9.08;62.66;100246.63;107593;1253;99234;-71
2024/03/29 02:27:30;;;;;;;8.80;2.90;;;;;;;9.07;62.40;100238.98;107558;1254;113053;-70
2024/03/29 02:29:58;;;;;;;10.70;2.90;;;;;;;9.08;62.28;100237.88;107574;1253;107174;-71
2024/03/29 02:32:26;;;;;;;9.60;3.50;;;;;;;9.07;62.23;100235.78;107562;1253;108657;-69
2024/03/29 02:34:54;;;;;;;10.80;3.20;;;;;;;9.05;62.49;100230.03;107661;1254;99181;-67
2024/03/29 02:37:22;;;;;;;8.30;2.90;;;;;;;9.03;62.30;100229.89;107547;1253;99097;-67
2024/03/29 02:39:50;;;;;;;13.10;2.70;;;;;;;9.00;62.32;100230.31;107603;1254;111892;-65
2024/03/29 02:42:19;;;;;;;7.40;2.40;;;;;;;8.99;62.43;100237.98;107567;1256;108591;-66
2024/03/29 02:44:47;;;;;;;15.10;3.40;;;;;;;9.00;62.42;100240.72;107556;1252;107922;-67
2024/03/29 02:47:15;;;;;;;7.70;1.40;;;;;;;9.07;61.56;100228.98;107532;1252;99202;-66
2024/03/29 02:49:43;;;;;;;6.50;1.60;;;;;;;9.22;60.98;100226.73;107593;1256;99762;-69
2024/03/29 02:52:11;;;;;;;4.10;1.60;;;;;;;9.46;59.78;100229.05;107574;1253;113045;-69
2024/03/29 02:54:43;;;;;;;3.90;1.60;;;;;;;9.70;59.08;100231.14;107568;1254;108307;-67
2024/03/29 02:57:11;;;;;;;4.30;1.50;;;;;;;9.91;57.84;100227.02;107569;1254;108295;-67
2024/03/29 02:59:41;;;;;;;5.10;1.50;;;;;;;10.16;56.86;100225.56;107535;1253;99218;-69
2024/03/29 03:02:09;;;;;;;4.60;1.40;;;;;;;10.39;55.77;100225.89;107662;1251;99874;-69
2024/03/29 03:04:37;;;;;;;9.10;1.70;;;;;;;10.62;55.06;100220.46;107679;1251;112619;-69
2024/03/29 03:12:40;;;;;;;3.50;1.60;;;;;;;11.08;53.36;100200.33;107602;1251;99205;-70
2024/03/29 03:15:08;;;;;;;8.20;1.80;;;;;;;11.16;53.23;100192.02;107615;1251;99064;-71
2024/03/29 03:17:36;;;;;;;9.90;2.20;;;;;;;11.21;52.84;100197.79;107591;1252;112079;-71
2024/03/29 03:20:06;;;;;;;11.00;2.00;;;;;;;11.25;52.70;100213.11;107608;1251;108391;-72
2024/03/29 03:22:35;;;;;;;5.60;1.90;;;;;;;11.30;52.59;100228.84;107589;1251;107568;-71
2024/03/29 03:25:04;;;;;;;8.60;1.60;;;;;;;11.34;52.47;100223.48;107624;1251;99166;-71
2024/03/29 03:27:32;;;;;;;4.40;1.90;;;;;;;11.36;52.15;100223.71;107583;1252;99251;-69
2024/03/29 03:30:00;;;;;;;4.90;2.00;;;;;;;11.41;51.80;100224.45;107518;1254;111746;-70
2024/03/29 03:32:28;;;;;;;8.10;1.90;;;;;;;11.42;52.12;100230.99;107586;1254;107826;-70
2024/03/29 03:34:56;;;;;;;5.00;2.00;;;;;;;11.41;52.34;100238.73;107530;1254;107827;-71
2024/03/29 03:37:24;;;;;;;9.90;2.10;;;;;;;11.31;52.73;100256.02;107567;1253;99202;-70
2024/03/29 03:39:52;;;;;;;9.70;2.30;;;;;;;11.20;52.98;100255.90;107620;1254;99697;-70
2024/03/29 03:42:20;;;;;;;9.80;2.50;;;;;;;11.07;53.58;100268.28;107522;1254;113103;-71
2024/03/29 03:44:48;;;;;;;7.30;1.70;;;;;;;10.93;54.10;100271.27;107570;1251;108028;-72
2024/03/29 03:47:16;;;;;;;6.40;2.00;;;;;;;10.78;54.33;100264.30;107584;1251;108914;-69
2024/03/29 03:49:45;;;;;;;11.20;2.00;;;;;;;10.69;54.50;100269.50;107557;1251;99169;-69
2024/03/29 03:52:13;;;;;;;10.80;1.80;;;;;;;10.61;55.08;100272.02;107582;1254;99301;-66
2024/03/29 03:54:41;;;;;;;9.40;1.50;;;;;;;10.52;55.21;100280.45;107618;1254;113129;-66
2024/03/29 03:57:09;;;;;;;6.50;2.20;;;;;;;10.44;55.48;100282.77;107482;1254;108241;-66
2024/03/29 03:59:37;;;;;;;3.70;1.40;;;;;;;10.39;55.84;100284.70;107570;1253;108235;-68
2024/03/29 04:02:05;;;;;;;12.80;3.70;;;;;;;10.30;56.26;100284.77;107644;1254;99177;-67
2024/03/29 04:04:34;;;;;;;9.80;3.00;;;;;;;10.25;56.34;100289.63;107624;1255;99263;-69
2024/03/29 04:07:03;;;;;;;10.80;2.60;;;;;;;10.20;56.61;100294.67;107577;1250;113273;-69
2024/03/29 04:09:31;;;;;;;8.00;3.20;;;;;;;10.14;57.01;100296.16;107585;1254;107770;-68
2024/03/29 04:12:00;;;;;;;14.10;2.60;;;;;;;10.11;57.24;100297.64;107587;1251;107346;-68
2024/03/29 04:14:30;;;;;;;10.10;2.70;;;;;;;10.10;57.37;100293.31;107581;1251;99234;-66
2024/03/29 04:16:58;;;;;;;8.50;2.70;;;;;;;10.08;57.77;100285.98;107587;1251;99068;-67
2024/03/29 04:19:27;;;;;;;9.90;3.60;;;;;;;10.07;57.63;100294.50;107666;1251;113616;-67
2024/03/29 04:21:55;;;;;;;12.20;4.10;;;;;;;10.05;58.04;100282.68;107587;1251;109501;-66
2024/03/29 04:24:23;;;;;;;18.70;3.40;;;;;;;10.03;58.09;100283.52;107595;1250;107575;-67
2024/03/29 04:26:51;;;;;;;12.80;3.00;;;;;;;10.04;58.31;100279.86;107529;1254;99248;-66
2024/03/29 04:29:20;;;;;;;14.00;3.30;;;;;;;10.05;59.09;100283.79;107553;1255;99093;-66
2024/03/29 04:31:48;;;;;;;19.80;6.00;;;;;;;10.02;58.88;100278.64;107578;1255;113169;-66
2024/03/29 04:34:16;;;;;;;61.00;21.80;;;;;;;10.02;58.98;100283.29;107610;1254;108300;-65
2024/03/29 04:36:44;;;;;;;58.70;18.10;;;;;;;10.03;59.01;100287.36;107567;1254;108441;-67
2024/03/29 04:39:12;;;;;;;20.50;6.20;;;;;;;10.04;59.20;100293.52;107578;1251;99067;-69
2024/03/29 04:41:41;;;;;;;15.00;3.80;;;;;;;10.15;58.96;100279.07;107591;1251;99184;-67
2024/03/29 04:44:12;;;;;;;6.90;2.60;;;;;;;10.38;58.17;100268.98;107595;1254;113424;-67
2024/03/29 04:46:40;;;;;;;13.20;3.20;;;;;;;10.74;56.72;100269.89;107655;1254;109582;-67
2024/03/29 04:49:08;;;;;;;12.30;3.00;;;;;;;11.07;56.17;100265.59;107546;1254;108085;-66
2024/03/29 04:51:36;;;;;;;10.90;2.80;;;;;;;11.28;55.86;100260.63;107515;1254;99169;-67
2024/03/29 04:54:04;;;;;;;10.60;2.90;;;;;;;11.46;55.57;100252.06;107522;1254;99185;-67
2024/03/29 04:56:33;;;;;;;20.30;2.90;;;;;;;11.58;55.32;100256.02;107566;1254;113379;-66
2024/03/29 04:59:01;;;;;;;25.20;3.70;;;;;;;11.69;55.15;100262.13;107506;1254;107837;-67
2024/03/29 05:01:29;;;;;;;5.60;2.30;;;;;;;11.78;54.59;100267.16;107505;1254;107793;-67
2024/03/29 05:03:57;;;;;;;13.40;3.80;;;;;;;11.91;53.22;100266.71;107546;1254;99182;-67
2024/03/29 05:06:25;;;;;;;20.80;4.20;;;;;;;12.08;52.56;100265.73;107608;1251;99745;-66
2024/03/29 05:08:53;;;;;;;11.30;3.00;;;;;;;12.23;51.96;100276.28;107507;1254;113275;-65
2024/03/29 05:11:22;;;;;;;13.20;3.10;;;;;;;12.41;50.84;100281.98;107515;1254;107498;-66
2024/03/29 05:13:50;;;;;;;7.00;2.40;;;;;;;12.60;50.22;100283.20;107493;1254;108063;-68
2024/03/29 05:16:18;;;;;;;15.20;3.10;;;;;;;12.78;49.67;100285.48;107515;1254;99279;-68
2024/03/29 05:18:46;;;;;;;9.00;2.90;;;;;;;12.93;49.07;100277.35;107577;1254;99095;-66
2024/03/29 05:21:14;;;;;;;12.60;2.70;;;;;;;13.05;48.75;100282.82;107582;1254;112228;-66
2024/03/29 05:23:42;;;;;;;10.30;2.30;;;;;;;13.13;48.41;100283.54;107577;1254;108525;-65
2024/03/29 05:26:10;;;;;;;13.80;3.00;;;;;;;13.19;48.45;100283.46;107514;1253;107802;-66
2024/03/29 05:28:39;;;;;;;15.40;3.30;;;;;;;13.22;48.14;100282.05;107564;1253;99287;-66
2024/03/29 05:31:14;;;;;;;11.70;3.20;;;;;;;13.29;47.76;100287.98;107617;1254;99096;-65
2024/03/29 05:33:43;;;;;;;22.00;4.10;;;;;;;13.34;47.82;100284.98;107590;1253;113168;-65
2024/03/29 05:36:13;;;;;;;17.10;3.10;;;;;;;13.35;47.83;100282.62;107533;1253;107326;-65
2024/03/29 05:38:41;;;;;;;8.50;2.60;;;;;;;13.40;47.75;100284.27;107508;1254;108335;-66
2024/03/29 05:41:09;;;;;;;17.50;2.60;;;;;;;13.44;47.52;100276.45;107433;1254;99173;-66
2024/03/29 05:43:40;;;;;;;13.10;3.00;;;;;;;13.51;47.34;100258.25;107511;1252;99733;-67
2024/03/29 05:46:08;;;;;;;7.90;2.60;;;;;;;13.62;46.81;100256.02;107468;1254;113269;-66
2024/03/29 05:48:38;;;;;;;11.70;1.90;;;;;;;13.78;46.47;100247.50;107442;1254;107896;-67
2024/03/29 05:51:06;;;;;;;6.40;2.40;;;;;;;13.88;46.66;100237.95;107473;1256;107668;-65
2024/03/29 05:53:34;;;;;;;13.00;2.60;;;;;;;13.98;46.44;100217.39;107378;1254;99185;-66
2024/03/29 05:56:03;;;;;;;15.40;2.70;;;;;;;14.09;46.26;100191.77;107485;1253;99797;-66
2024/03/29 05:58:34;;;;;;;9.50;3.50;;;;;;;14.23;45.97;100161.80;107466;1252;113485;-64
2024/03/29 06:01:03;;;;;;;11.80;2.90;;;;;;;14.35;45.69;100151.20;107463;1253;106767;-65
2024/03/29 06:03:31;;;;;;;19.60;2.80;;;;;;;14.46;45.44;100133.36;107536;1254;108277;-65
2024/03/29 06:05:59;;;;;;;19.80;2.80;;;;;;;14.66;44.78;100129.63;107458;1254;99185;-66
2024/03/29 06:08:27;;;;;;;14.80;2.50;;;;;;;14.92;44.10;100137.88;107483;1254;99214;-65
2024/03/29 06:10:57;;;;;;;9.80;2.50;;;;;;;15.17;43.65;100139.98;107520;1254;111946;-65
2024/03/29 06:18:59;;;;;;;5.10;1.80;;;;;;;15.65;43.16;100185.23;107508;1254;99214;-64
2024/03/29 06:21:27;;;;;;;7.50;1.90;;;;;;;15.78;42.64;100200.67;107483;1254;99770;-65
2024/03/29 06:23:56;;;;;;;8.50;2.00;;;;;;;15.93;42.17;100192.11;107562;1254;112818;-64
2024/03/29 06:26:24;;;;;;;25.60;2.70;;;;;;;16.04;42.07;100199.59;107451;1254;108044;-65
2024/03/29 06:28:52;;;;;;;17.40;2.50;;;;;;;16.19;41.76;100202.59;107447;1254;107492;-64
2024/03/29 06:31:20;;;;;;;8.60;2.80;;;;;;;16.27;41.80;100199.41;107387;1254;99213;-65
2024/03/29 06:33:49;;;;;;;20.10;2.80;;;;;;;16.34;41.43;100197.08;107450;1254;99184;-66
2024/03/29 06:36:17;;;;;;;20.60;3.10;;;;;;;16.42;41.53;100202.98;107422;1253;113189;-66
2024/03/29 06:38:45;;;;;;;12.80;2.80;;;;;;;16.53;41.14;100182.82;107488;1253;108353;-65
2024/03/29 06:41:15;;;;;;;12.30;2.90;;;;;;;16.61;41.05;100160.45;107420;1256;108298;-66
2024/03/29 06:43:46;;;;;;;8.40;3.10;;;;;;;16.70;40.84;100157.70;107421;1254;99189;-67
2024/03/29 06:46:15;;;;;;;21.50;2.90;;;;;;;16.84;40.55;100133.70;107398;1254;99180;-65
2024/03/29 06:48:43;;;;;;;17.20;3.70;;;;;;;16.91;40.58;100122.20;107379;1253;113514;-66
2024/03/29 06:51:11;;;;;;;9.70;2.70;;;;;;;16.95;40.72;100127.52;107480;1251;107783;-66
2024/03/29 06:53:39;;;;;;;10.80;2.50;;;;;;;17.04;40.37;100166.55;107443;1251;109338;-65
2024/03/29 06:56:08;;;;;;;10.70;2.60;;;;;;;17.13;40.28;100186.69;107457;1253;99226;-66
2024/03/29 06:58:36;;;;;;;21.80;2.50;;;;;;;17.23;40.06;100207.02;107554;1251;99260;-66
2024/03/29 07:01:07;;;;;;;13.20;1.60;;;;;;;17.35;39.61;100229.95;107490;1251;112661;-66
2024/03/29 07:03:35;;;;;;;22.00;2.90;;;;;;;17.50;39.05;100226.98;107483;1251;107254;-66
2024/03/29 07:06:04;;;;;;;13.40;2.10;;;;;;;17.64;38.60;100241.67;107472;1254;108798;-66
2024/03/29 07:08:32;;;;;;;18.60;1.80;;;;;;;17.83;37.68;100244.05;107585;1251;99175;-66
2024/03/29 07:11:01;;;;;;;15.10;1.10;;;;;;;18.05;34.52;100258.69;107587;1253;99724;-66
2024/03/29 07:13:33;;;;;;;13.50;1.80;;;;;;;18.18;33.95;100257.14;107618;1252;113426;-64
2024/03/29 07:16:02;;;;;;;19.30;1.30;;;;;;;18.27;34.17;100261.19;107637;1256;107571;-64
2024/03/29 07:18:30;;;;;;;7.30;1.40;;;;;;;18.36;34.52;100269.95;107565;1254;109480;-66
2024/03/29 07:20:58;;;;;;;8.90;1.00;;;;;;;18.43;34.49;100290.06;107604;1253;99239;-65
2024/03/29 07:23:26;;;;;;;7.80;1.20;;;;;;;18.49;34.48;100291.70;107669;1256;99194;-66
2024/03/29 07:26:00;;;;;;;3.70;1.10;;;;;;;18.52;34.10;100300.02;107590;1253;112618;-65
2024/03/29 07:28:28;;;;;;;;;;;;;;;18.52;33.43;100320.16;107645;1254;108642;-65
2024/03/29 07:30:57;;;;;;;5.60;1.00;;;;;;;18.50;33.82;100330.58;107607;1254;107957;-66
2024/03/29 07:33:26;;;;;;;7.70;1.00;;;;;;;18.50;34.46;100332.56;107520;1251;99260;-65
2024/03/29 07:35:55;;;;;;;11.20;1.40;;;;;;;18.52;34.52;100351.05;107546;1254;99170;-65
2024/03/29 07:38:23;;;;;;;7.80;0.90;;;;;;;18.51;33.36;100363.27;107629;1251;113624;-65
2024/03/29 07:40:52;;;;;;;8.70;0.90;;;;;;;18.52;31.88;100370.11;107604;1251;107835;-66
2024/03/29 07:43:22;;;;;;;15.20;0.90;;;;;;;18.52;29.74;100396.05;107625;1251;108797;-66
2024/03/29 07:45:50;;;;;;;17.10;0.80;;;;;;;18.54;29.22;100393.63;107636;1251;99237;-66
2024/03/29 07:48:19;;;;;;;9.50;0.60;;;;;;;18.53;28.84;100402.02;107550;1253;99288;-66
2024/03/29 07:50:47;;;;;;;20.90;0.70;;;;;;;18.55;28.97;100407.61;107583;1254;113257;-65
2024/03/29 07:53:15;;;;;;;18.10;1.10;;;;;;;18.58;28.81;100420.54;107558;1251;107756;-65
2024/03/29 07:55:43;;;;;;;4.80;0.60;;;;;;;18.63;28.60;100418.77;107564;1251;108073;-65
2024/03/29 07:58:12;;;;;;;8.50;1.20;;;;;;;18.64;28.46;100430.88;106984;1255;771776;-66
2024/03/29 08:00:42;;;;;;;9.80;1.20;;;;;;;18.60;28.56;100427.46;107629;1251;99074;-66
2024/03/29 08:03:10;;;;;;;6.80;0.70;;;;;;;18.59;28.91;100410.31;107646;1251;112825;-65
2024/03/29 08:05:40;;;;;;;8.80;0.70;;;;;;;18.60;28.81;100429.48;107568;1251;108675;-66
2024/03/29 08:08:08;;;;;;;12.30;0.80;;;;;;;18.64;28.61;100424.40;107577;1251;107673;-66
2024/03/29 08:10:37;;;;;;;4.50;0.70;;;;;;;18.69;28.36;100452.47;107594;1251;99233;-67
2024/03/29 08:13:06;;;;;;;15.20;0.60;;;;;;;18.71;28.10;100460.81;107580;1250;99262;-67
2024/03/29 08:15:34;;;;;;;6.80;0.50;;;;;;;18.71;27.75;100458.77;107634;1251;113388;-67
2024/03/29 08:18:03;;;;;;;3.30;0.50;;;;;;;18.69;27.76;100457.29;107549;1251;108497;-66
2024/03/29 08:20:32;;;;;;;13.30;1.00;;;;;;;18.74;27.68;100476.19;107594;1251;107309;-66
2024/03/29 08:23:00;;;;;;;5.80;0.30;;;;;;;18.82;27.92;100474.83;107471;1251;99265;-65
2024/03/29 08:25:32;;;;;;;2.90;0.70;;;;;;;18.88;27.81;100460.95;107597;1254;99055;-65
2024/03/29 08:28:01;;;;;;;3.00;0.50;;;;;;;18.96;27.49;100472.15;107615;1253;113221;-66
2024/03/29 08:30:34;;;;;;;6.30;0.40;;;;;;;19.06;27.27;100481.77;107573;1254;108516;-65
2024/03/29 08:33:03;;;;;;;3.50;0.40;;;;;;;19.14;27.21;100478.98;107608;1254;108251;-66
2024/03/29 08:35:33;;;;;;;1.40;0.40;;;;;;;19.16;27.09;100477.36;107627;1254;99297;-66
2024/03/29 08:38:01;;;;;;;3.70;0.50;;;;;;;19.24;27.19;100482.39;107578;1254;99195;-66
2024/03/29 08:40:34;;;;;;;6.40;0.40;;;;;;;19.34;27.42;100482.88;107572;1254;112264;-65
2024/03/29 08:43:04;;;;;;;3.50;0.50;;;;;;;19.42;26.57;100494.07;107611;1254;108556;-66
2024/03/29 08:45:32;;;;;;;1.80;0.30;;;;;;;19.44;26.26;100513.98;107611;1252;107669;-67
2024/03/29 08:48:00;;;;;;;6.30;0.70;;;;;;;19.44;24.08;100529.84;107558;1254;99284;-66
2024/03/29 08:50:28;;;;;;;7.90;0.40;;;;;;;19.47;24.41;100524.11;107592;1251;99417;-65
2024/03/29 08:52:57;;;;;;;0.60;0.20;;;;;;;19.55;24.57;100526.93;107616;1251;113184;-65
2024/03/29 08:55:25;;;;;;;4.40;0.40;;;;;;;19.63;24.91;100545.31;107598;1251;108495;-70
2024/03/29 08:57:54;;;;;;;5.60;0.70;;;;;;;19.83;26.78;100571.88;107556;1255;107650;-64
2024/03/29 09:00:22;;;;;;;5.00;0.50;;;;;;;19.91;30.73;100593.70;107603;1251;99159;-66
2024/03/29 09:02:50;;;;;;;13.20;1.10;;;;;;;19.91;32.79;100593.81;107572;1256;99704;-65
2024/03/29 09:05:19;;;;;;;62.20;2.30;;;;;;;19.93;33.35;100595.67;107597;1255;112651;-66
2024/03/29 09:07:47;;;;;;;7.90;0.70;;;;;;;19.79;33.84;100622.31;107622;1251;107722;-66
2024/03/29 09:10:19;;;;;;;24.80;1.40;;;;;;;19.64;33.94;100633.73;107559;1251;107710;-67
2024/03/29 09:12:47;;;;;;;51.40;2.30;;;;;;;19.68;34.32;100626.66;107597;1251;99175;-66
2024/03/29 09:15:16;;;;;;;10.30;0.60;;;;;;;19.60;34.58;100641.13;107533;1253;99736;-65
2024/03/29 09:17:48;;;;;;;5.00;0.70;;;;;;;19.67;34.97;100643.77;107601;1254;112662;-66
2024/03/29 09:20:17;;;;;;;10.00;0.80;;;;;;;19.78;35.09;100650.69;107605;1256;107903;-66
2024/03/29 09:22:46;;;;;;;6.90;0.40;;;;;;;19.85;35.39;100649.29;107633;1254;108421;-67
2024/03/29 09:25:14;;;;;;;15.00;1.00;;;;;;;20.07;34.76;100649.34;107538;1256;99326;-67
2024/03/29 09:27:46;;;;;;;3.40;0.50;;;;;;;20.24;34.55;100658.75;107642;1256;99308;-67
2024/03/29 09:30:15;;;;;;;5.20;0.60;;;;;;;20.54;33.92;100665.98;107554;1256;112790;-67
2024/03/29 09:32:43;;;;;;;14.00;1.10;;;;;;;20.99;32.77;100655.96;107572;1254;107985;-67
2024/03/29 09:35:11;;;;;;;2.80;0.50;;;;;;;21.56;32.01;100658.21;107565;1254;108470;-67
2024/03/29 09:37:42;;;;;;;2.50;0.60;;;;;;;22.20;31.56;100670.80;107572;1254;99069;-66
2024/03/29 09:40:11;;;;;;;6.70;0.60;;;;;;;22.74;30.38;100669.06;107567;1254;99140;-66
2024/03/29 09:42:40;;;;;;;4.60;0.50;;;;;;;23.18;29.98;100684.80;107568;1256;113580;-66
2024/03/29 09:45:11;;;;;;;5.60;0.50;;;;;;;23.71;29.57;100678.96;107568;1254;108731;-65
2024/03/29 09:47:40;;;;;;;18.20;1.30;;;;;;;24.12;28.74;100680.26;107556;1251;108171;-66
2024/03/29 09:50:09;;;;;;;18.10;0.60;;;;;;;24.46;28.17;100684.46;107557;1256;99294;-67
2024/03/29 09:52:39;;;;;;;9.70;0.70;;;;;;;25.03;28.16;100675.04;107581;1254;99730;-66
2024/03/29 09:55:09;;;;;;;7.90;0.70;;;;;;;25.69;27.59;100675.70;107507;1254;113238;-66
2024/03/29 09:57:37;;;;;;;16.30;1.60;;;;;;;26.16;26.98;100680.40;107593;1256;108751;-65
2024/03/29 10:00:08;;;;;;;11.60;0.70;;;;;;;26.64;25.52;100680.91;107600;1255;107596;-66
2024/03/29 10:02:36;;;;;;;9.20;0.60;;;;;;;26.80;24.78;100675.70;107585;1251;99171;-67
2024/03/29 10:05:08;;;;;;;28.70;1.40;;;;;;;26.93;24.82;100675.97;107568;1256;99070;-66
2024/03/29 10:07:37;;;;;;;11.30;1.30;;;;;;;27.04;24.82;100672.90;107598;1254;114538;-66
2024/03/29 10:10:06;;;;;;;25.70;1.30;;;;;;;27.19;24.08;100678.88;107648;1254;108625;-66
2024/03/29 10:12:34;;;;;;;9.90;0.40;;;;;;;27.24;24.32;100690.86;107607;1254;107008;-67
2024/03/29 10:15:12;;;;;;;2.70;0.50;;;;;;;27.28;23.81;100707.10;107507;1252;99194;-67
2024/03/29 10:17:46;;;;;;;7.50;0.50;;;;;;;27.44;24.53;100707.50;107569;1254;99061;-67
2024/03/29 10:20:18;;;;;;;10.10;0.90;;;;;;;27.83;23.23;100707.69;107636;1256;112632;-67
2024/03/29 10:22:46;;;;;;;9.20;0.50;;;;;;;28.01;22.62;100701.21;107698;1256;107607;-67
2024/03/29 10:25:16;;;;;;;3.10;0.50;;;;;;;27.98;22.94;100702.48;107607;1251;108881;-67
2024/03/29 10:27:44;;;;;;;2.80;0.30;;;;;;;28.31;22.53;100711.64;107534;1254;99233;-65
2024/03/29 10:30:17;;;;;;;2.70;0.40;;;;;;;28.50;22.90;100711.42;107600;1257;99294;-66
2024/03/29 10:32:45;;;;;;;1.30;0.60;;;;;;;28.78;22.14;100717.71;107629;1254;113515;-66
2024/03/29 10:35:13;;;;;;;4.70;0.40;;;;;;;29.19;21.36;100700.13;107589;1254;107595;-66
2024/03/29 10:37:43;;;;;;;0.50;0.30;;;;;;;29.20;21.78;100709.34;107592;1252;107897;-67
2024/03/29 10:40:15;;;;;;;6.00;0.50;;;;;;;29.55;20.74;100694.08;107545;1251;99262;-67
2024/03/29 10:42:45;;;;;;;0.30;0.30;;;;;;;29.48;21.50;100705.01;107521;1255;99077;-66
2024/03/29 10:45:14;;;;;;;1.00;0.30;;;;;;;29.64;21.58;100711.09;107546;1251;112481;-67
2024/03/29 10:47:44;;;;;;;1.60;0.50;;;;;;;30.09;21.02;100718.52;107562;1255;107648;-67
2024/03/29 10:50:15;;;;;;;2.10;0.70;;;;;;;30.20;20.98;100727.41;107507;1251;107859;-68
2024/03/29 10:52:44;;;;;;;4.80;0.50;;;;;;;30.59;20.41;100717.39;107551;1256;99181;-67
2024/03/29 10:55:13;;;;;;;3.70;0.40;;;;;;;30.71;20.10;100723.82;107571;1255;99271;-68
2024/03/29 10:57:42;;;;;;;4.00;0.50;;;;;;;30.98;19.87;100717.21;107609;1251;113818;-67
2024/03/29 11:00:20;;;;;;;20.10;0.80;;;;;;;31.13;19.44;100718.09;107512;1257;107300;-66
2024/03/29 11:03:25;;;;;;;25.00;1.30;;;;;;;30.91;19.54;100729.20;107573;1251;108129;-68
2024/03/29 11:05:59;;;;;;;4.10;0.40;;;;;;;30.71;19.64;100732.92;107515;1251;99195;-66
2024/03/29 11:08:34;;;;;;;0.90;0.40;;;;;;;30.91;20.13;100732.04;107600;1256;99207;-66
2024/03/29 11:11:04;;;;;;;4.70;0.30;;;;;;;31.38;20.08;100727.40;107557;1254;113635;-68
2024/03/29 11:13:52;;;;;;;0.40;0.30;;;;;;;31.97;19.35;100721.80;107548;1251;107254;-67
2024/03/29 11:16:20;;;;;;;3.00;0.40;;;;;;;32.34;18.42;100727.66;107534;1254;108000;-66
2024/03/29 11:18:49;;;;;;;7.70;0.60;;;;;;;32.55;17.92;100720.74;107615;1256;99163;-67
2024/03/29 11:21:18;;;;;;;3.20;0.20;;;;;;;32.20;18.59;100728.83;107584;1254;99125;-67
2024/03/29 11:23:51;;;;;;;1.40;0.20;;;;;;;32.27;18.11;100728.10;107618;1251;113794;-66
2024/03/29 11:26:20;;;;;;;6.00;0.40;;;;;;;32.15;18.20;100729.95;107529;1251;107816;-66
2024/03/29 11:28:50;;;;;;;29.20;1.90;;;;;;;32.24;18.53;100721.75;107572;1257;108558;-67